sensor_id;sensor_type;location;lat;lon;timestamp;temperature;humidity
13344;DHT22;6741;48.964;9.406;2023-04-06T00:00:20;-0.50;99.90
13344;DHT22;6741;48.964;9.406;2023-04-06T00:02:46;-0.40;99.90
13344;DHT22;6741;48.964;9.406;2023-04-06T00:05:14;-0.40;99.90
13344;DHT22;6741;48.964;9.406;2023-04-06T00:07:41;-0.50;99.90
13344;DHT22;6741;48.964;9.406;2023-04-06T00:10:09;-0.60;99.90
13344;DHT22;6741;48.964;9.406;2023-04-06T00:12:36;-0.70;99.90
13344;DHT22;6741;48.964;9.406;2023-04-06T00:15:03;-0.80;99.90
13344;DHT22;6741;48.964;9.406;2023-04-06T00:17:32;-0.70;99.90
13344;DHT22;6741;48.964;9.406;2023-04-06T00:19:59;-0.70;99.90
13344;DHT22;6741;48.964;9.406;2023-04-06T00:22:27;-0.70;99.90
13344;DHT22;6741;48.964;9.406;2023-04-06T00:24:54;-0.80;99.90
13344;DHT22;6741;48.964;9.406;2023-04-06T00:27:21;-0.80;99.90
13344;DHT22;6741;48.964;9.406;2023-04-06T00:29:48;-0.70;99.90
13344;DHT22;6741;48.964;9.406;2023-04-06T00:32:15;-0.80;99.90
13344;DHT22;6741;48.964;9.406;2023-04-06T00:34:43;-0.80;99.90
13344;DHT22;6741;48.964;9.406;2023-04-06T00:37:11;-0.90;99.90
13344;DHT22;6741;48.964;9.406;2023-04-06T00:39:38;-0.80;99.90
13344;DHT22;6741;48.964;9.406;2023-04-06T00:42:11;-0.80;99.90
13344;DHT22;6741;48.964;9.406;2023-04-06T00:44:39;-0.90;99.90
13344;DHT22;6741;48.964;9.406;2023-04-06T00:47:06;-0.90;99.90
13344;DHT22;6741;48.964;9.406;2023-04-06T00:49:34;-0.90;99.90
13344;DHT22;6741;48.964;9.406;2023-04-06T00:52:02;-0.90;99.90
13344;DHT22;6741;48.964;9.406;2023-04-06T00:54:29;-1.00;99.90
13344;DHT22;6741;48.964;9.406;2023-04-06T00:56:57;-0.90;99.90
13344;DHT22;6741;48.964;9.406;2023-04-06T00:59:24;-1.00;99.90
13344;DHT22;6741;48.964;9.406;2023-04-06T01:01:51;-1.00;99.90
13344;DHT22;6741;48.964;9.406;2023-04-06T01:04:18;-1.00;99.90
13344;DHT22;6741;48.964;9.406;2023-04-06T01:06:45;-1.00;99.90
13344;DHT22;6741;48.964;9.406;2023-04-06T01:09:13;-1.10;99.90
13344;DHT22;6741;48.964;9.406;2023-04-06T01:11:41;-1.10;99.90
13344;DHT22;6741;48.964;9.406;2023-04-06T01:14:08;-1.10;99.90
13344;DHT22;6741;48.964;9.406;2023-04-06T01:16:35;-1.00;99.90
13344;DHT22;6741;48.964;9.406;2023-04-06T01:19:07;-1.10;99.90
13344;DHT22;6741;48.964;9.406;2023-04-06T01:21:34;-1.00;99.90
13344;DHT22;6741;48.964;9.406;2023-04-06T01:24:03;-1.00;99.90
13344;DHT22;6741;48.964;9.406;2023-04-06T01:26:31;-1.10;99.90
13344;DHT22;6741;48.964;9.406;2023-04-06T01:28:58;-1.10;99.90
13344;DHT22;6741;48.964;9.406;2023-04-06T01:31:26;-1.00;99.90
13344;DHT22;6741;48.964;9.406;2023-04-06T01:33:53;-1.00;99.90
13344;DHT22;6741;48.964;9.406;2023-04-06T01:36:21;-1.00;99.90
13344;DHT22;6741;48.964;9.406;2023-04-06T01:38:48;-1.00;99.90
13344;DHT22;6741;48.964;9.406;2023-04-06T01:41:17;-1.10;99.90
13344;DHT22;6741;48.964;9.406;2023-04-06T01:43:44;-1.20;99.90
13344;DHT22;6741;48.964;9.406;2023-04-06T01:46:14;-1.10;99.90
13344;DHT22;6741;48.964;9.406;2023-04-06T01:48:41;-1.10;99.90
13344;DHT22;6741;48.964;9.406;2023-04-06T01:51:11;-1.00;99.90
13344;DHT22;6741;48.964;9.406;2023-04-06T01:53:38;-1.10;99.90
13344;DHT22;6741;48.964;9.406;2023-04-06T01:56:06;-1.20;99.90
13344;DHT22;6741;48.964;9.406;2023-04-06T01:58:34;-1.20;99.90
13344;DHT22;6741;48.964;9.406;2023-04-06T02:01:01;-1.30;99.90
13344;DHT22;6741;48.964;9.406;2023-04-06T02:03:28;-1.30;99.90
13344;DHT22;6741;48.964;9.406;2023-04-06T02:05:56;-1.40;99.90
13344;DHT22;6741;48.964;9.406;2023-04-06T02:08:23;-1.50;99.90
13344;DHT22;6741;48.964;9.406;2023-04-06T02:10:50;-1.50;99.90
13344;DHT22;6741;48.964;9.406;2023-04-06T02:13:17;-1.50;99.90
13344;DHT22;6741;48.964;9.406;2023-04-06T02:15:46;-1.60;99.90
13344;DHT22;6741;48.964;9.406;2023-04-06T02:18:12;-1.60;99.90
13344;DHT22;6741;48.964;9.406;2023-04-06T02:20:40;-1.60;99.90
13344;DHT22;6741;48.964;9.406;2023-04-06T02:23:07;-1.60;99.90
13344;DHT22;6741;48.964;9.406;2023-04-06T02:25:34;-1.50;99.90
13344;DHT22;6741;48.964;9.406;2023-04-06T02:28:01;-1.50;99.90
13344;DHT22;6741;48.964;9.406;2023-04-06T02:30:28;-1.40;99.90
13344;DHT22;6741;48.964;9.406;2023-04-06T02:32:58;-1.20;99.90
13344;DHT22;6741;48.964;9.406;2023-04-06T02:35:27;-1.20;99.90
13344;DHT22;6741;48.964;9.406;2023-04-06T02:37:54;-1.40;99.90
13344;DHT22;6741;48.964;9.406;2023-04-06T02:40:21;-1.50;99.90
13344;DHT22;6741;48.964;9.406;2023-04-06T02:42:48;-1.50;99.90
13344;DHT22;6741;48.964;9.406;2023-04-06T02:45:15;-1.50;99.90
13344;DHT22;6741;48.964;9.406;2023-04-06T02:47:42;-1.50;99.90
13344;DHT22;6741;48.964;9.406;2023-04-06T02:50:10;-1.60;99.90
13344;DHT22;6741;48.964;9.406;2023-04-06T02:52:37;-1.60;99.90
13344;DHT22;6741;48.964;9.406;2023-04-06T02:55:05;-1.70;99.90
13344;DHT22;6741;48.964;9.406;2023-04-06T02:57:33;-1.60;99.90
13344;DHT22;6741;48.964;9.406;2023-04-06T03:00:00;-1.40;99.90
13344;DHT22;6741;48.964;9.406;2023-04-06T03:02:27;-1.50;99.90
13344;DHT22;6741;48.964;9.406;2023-04-06T03:04:53;-1.50;99.90
13344;DHT22;6741;48.964;9.406;2023-04-06T03:13:53;-1.70;99.90
13344;DHT22;6741;48.964;9.406;2023-04-06T03:16:20;-1.60;99.90
13344;DHT22;6741;48.964;9.406;2023-04-06T03:18:47;-1.70;99.90
13344;DHT22;6741;48.964;9.406;2023-04-06T03:21:14;-1.70;99.90
13344;DHT22;6741;48.964;9.406;2023-04-06T03:23:41;-1.70;99.90
13344;DHT22;6741;48.964;9.406;2023-04-06T03:26:08;-1.70;99.90
13344;DHT22;6741;48.964;9.406;2023-04-06T03:28:36;-1.80;99.90
13344;DHT22;6741;48.964;9.406;2023-04-06T03:31:04;-1.80;99.90
13344;DHT22;6741;48.964;9.406;2023-04-06T03:33:31;-1.80;99.90
13344;DHT22;6741;48.964;9.406;2023-04-06T03:35:58;-1.80;99.90
13344;DHT22;6741;48.964;9.406;2023-04-06T03:38:25;-1.80;99.90
13344;DHT22;6741;48.964;9.406;2023-04-06T03:40:52;-1.90;99.90
13344;DHT22;6741;48.964;9.406;2023-04-06T03:43:19;-1.80;99.90
13344;DHT22;6741;48.964;9.406;2023-04-06T03:45:46;-1.90;99.90
13344;DHT22;6741;48.964;9.406;2023-04-06T03:48:14;-2.00;99.90
13344;DHT22;6741;48.964;9.406;2023-04-06T03:50:41;-2.00;99.90
13344;DHT22;6741;48.964;9.406;2023-04-06T03:53:08;-2.00;99.90
13344;DHT22;6741;48.964;9.406;2023-04-06T03:55:35;-1.80;99.90
13344;DHT22;6741;48.964;9.406;2023-04-06T03:58:02;-2.00;99.90
13344;DHT22;6741;48.964;9.406;2023-04-06T04:00:29;-2.00;99.90
13344;DHT22;6741;48.964;9.406;2023-04-06T04:02:58;-1.70;99.90
13344;DHT22;6741;48.964;9.406;2023-04-06T04:05:27;-2.00;99.90
13344;DHT22;6741;48.964;9.406;2023-04-06T04:07:54;-2.00;99.90
13344;DHT22;6741;48.964;9.406;2023-04-06T04:10:21;-2.00;99.90
13344;DHT22;6741;48.964;9.406;2023-04-06T04:12:48;-2.10;99.90
13344;DHT22;6741;48.964;9.406;2023-04-06T04:15:15;-2.00;99.90
13344;DHT22;6741;48.964;9.406;2023-04-06T04:17:42;-2.00;99.90
13344;DHT22;6741;48.964;9.406;2023-04-06T04:20:12;-2.10;99.90
13344;DHT22;6741;48.964;9.406;2023-04-06T04:22:41;-2.20;99.90
13344;DHT22;6741;48.964;9.406;2023-04-06T04:25:08;-2.20;99.90
13344;DHT22;6741;48.964;9.406;2023-04-06T04:27:35;-2.20;99.90
13344;DHT22;6741;48.964;9.406;2023-04-06T04:30:03;-2.20;99.90
13344;DHT22;6741;48.964;9.406;2023-04-06T04:32:30;-2.20;99.90
13344;DHT22;6741;48.964;9.406;2023-04-06T04:34:57;-2.20;99.90
13344;DHT22;6741;48.964;9.406;2023-04-06T04:37:24;-2.10;99.90
13344;DHT22;6741;48.964;9.406;2023-04-06T04:39:52;-2.20;99.90
13344;DHT22;6741;48.964;9.406;2023-04-06T04:42:19;-2.20;99.90
13344;DHT22;6741;48.964;9.406;2023-04-06T04:44:46;-2.20;99.90
13344;DHT22;6741;48.964;9.406;2023-04-06T04:47:13;-2.20;99.90
13344;DHT22;6741;48.964;9.406;2023-04-06T04:49:40;-2.20;99.90
13344;DHT22;6741;48.964;9.406;2023-04-06T04:52:07;-2.20;99.90
13344;DHT22;6741;48.964;9.406;2023-04-06T04:54:34;-2.10;99.90
13344;DHT22;6741;48.964;9.406;2023-04-06T04:57:02;-2.10;99.90
13344;DHT22;6741;48.964;9.406;2023-04-06T04:59:29;-2.20;99.90
13344;DHT22;6741;48.964;9.406;2023-04-06T05:01:56;-2.30;99.90
13344;DHT22;6741;48.964;9.406;2023-04-06T05:04:23;-2.30;99.90
13344;DHT22;6741;48.964;9.406;2023-04-06T05:06:50;-2.30;99.90
13344;DHT22;6741;48.964;9.406;2023-04-06T05:09:17;-2.20;99.90
13344;DHT22;6741;48.964;9.406;2023-04-06T05:11:44;-2.20;99.90
13344;DHT22;6741;48.964;9.406;2023-04-06T05:14:13;-2.30;99.90
13344;DHT22;6741;48.964;9.406;2023-04-06T05:16:40;-2.30;99.90
13344;DHT22;6741;48.964;9.406;2023-04-06T05:19:07;-2.30;99.90
13344;DHT22;6741;48.964;9.406;2023-04-06T05:21:34;-2.30;99.90
13344;DHT22;6741;48.964;9.406;2023-04-06T05:24:02;-2.40;99.90
13344;DHT22;6741;48.964;9.406;2023-04-06T05:26:29;-2.30;99.90
13344;DHT22;6741;48.964;9.406;2023-04-06T05:28:56;-2.30;99.90
13344;DHT22;6741;48.964;9.406;2023-04-06T05:31:24;-2.20;99.90
13344;DHT22;6741;48.964;9.406;2023-04-06T05:33:51;-2.10;99.90
13344;DHT22;6741;48.964;9.406;2023-04-06T05:36:18;-2.10;99.90
13344;DHT22;6741;48.964;9.406;2023-04-06T05:38:45;-2.00;99.90
13344;DHT22;6741;48.964;9.406;2023-04-06T05:41:12;-1.90;99.90
13344;DHT22;6741;48.964;9.406;2023-04-06T05:43:39;-1.90;99.90
13344;DHT22;6741;48.964;9.406;2023-04-06T05:46:06;-1.80;99.90
13344;DHT22;6741;48.964;9.406;2023-04-06T05:48:34;-1.80;99.90
13344;DHT22;6741;48.964;9.406;2023-04-06T05:51:01;-1.80;99.90
13344;DHT22;6741;48.964;9.406;2023-04-06T05:53:31;-1.70;99.90
13344;DHT22;6741;48.964;9.406;2023-04-06T05:56:00;-1.60;99.90
13344;DHT22;6741;48.964;9.406;2023-04-06T05:58:27;-1.50;99.90
13344;DHT22;6741;48.964;9.406;2023-04-06T06:00:57;-1.40;99.90
13344;DHT22;6741;48.964;9.406;2023-04-06T06:03:24;-1.30;99.90
13344;DHT22;6741;48.964;9.406;2023-04-06T06:05:52;-1.20;99.90
13344;DHT22;6741;48.964;9.406;2023-04-06T06:08:19;-1.10;99.90
13344;DHT22;6741;48.964;9.406;2023-04-06T06:10:46;-1.00;99.90
13344;DHT22;6741;48.964;9.406;2023-04-06T06:13:13;-0.90;99.90
13344;DHT22;6741;48.964;9.406;2023-04-06T06:15:40;-0.90;99.90
13344;DHT22;6741;48.964;9.406;2023-04-06T06:18:06;-0.80;99.90
13344;DHT22;6741;48.964;9.406;2023-04-06T06:20:33;-0.70;99.90
13344;DHT22;6741;48.964;9.406;2023-04-06T06:23:02;-0.60;99.90
13344;DHT22;6741;48.964;9.406;2023-04-06T06:25:28;-0.40;99.90
13344;DHT22;6741;48.964;9.406;2023-04-06T06:27:56;-0.40;99.90
13344;DHT22;6741;48.964;9.406;2023-04-06T06:30:23;-0.30;99.90
13344;DHT22;6741;48.964;9.406;2023-04-06T06:32:50;-0.20;99.90
13344;DHT22;6741;48.964;9.406;2023-04-06T06:35:17;-0.10;99.90
13344;DHT22;6741;48.964;9.406;2023-04-06T06:37:44;0.10;99.90
13344;DHT22;6741;48.964;9.406;2023-04-06T06:40:13;0.10;99.90
13344;DHT22;6741;48.964;9.406;2023-04-06T06:42:41;0.20;99.90
13344;DHT22;6741;48.964;9.406;2023-04-06T06:45:09;0.30;99.90
13344;DHT22;6741;48.964;9.406;2023-04-06T06:47:36;0.40;99.90
13344;DHT22;6741;48.964;9.406;2023-04-06T06:50:04;0.60;99.90
13344;DHT22;6741;48.964;9.406;2023-04-06T06:52:31;0.70;99.90
13344;DHT22;6741;48.964;9.406;2023-04-06T06:54:58;0.90;99.90
13344;DHT22;6741;48.964;9.406;2023-04-06T06:57:27;1.20;99.90
13344;DHT22;6741;48.964;9.406;2023-04-06T06:59:54;1.40;99.90
13344;DHT22;6741;48.964;9.406;2023-04-06T07:02:21;1.60;99.90
13344;DHT22;6741;48.964;9.406;2023-04-06T07:04:48;1.70;99.90
13344;DHT22;6741;48.964;9.406;2023-04-06T07:07:15;1.90;99.90
13344;DHT22;6741;48.964;9.406;2023-04-06T07:09:42;2.00;99.90
13344;DHT22;6741;48.964;9.406;2023-04-06T07:12:10;2.20;99.90
13344;DHT22;6741;48.964;9.406;2023-04-06T07:14:39;2.40;99.90
13344;DHT22;6741;48.964;9.406;2023-04-06T07:17:06;2.60;99.90
13344;DHT22;6741;48.964;9.406;2023-04-06T07:19:33;2.80;99.90
13344;DHT22;6741;48.964;9.406;2023-04-06T07:22:01;3.10;99.90
13344;DHT22;6741;48.964;9.406;2023-04-06T07:24:28;3.20;99.90
13344;DHT22;6741;48.964;9.406;2023-04-06T07:26:55;3.40;99.90
13344;DHT22;6741;48.964;9.406;2023-04-06T07:29:23;3.70;99.90
13344;DHT22;6741;48.964;9.406;2023-04-06T07:31:51;3.90;99.90
13344;DHT22;6741;48.964;9.406;2023-04-06T07:34:18;4.00;99.90
13344;DHT22;6741;48.964;9.406;2023-04-06T07:36:45;4.20;99.90
13344;DHT22;6741;48.964;9.406;2023-04-06T07:39:12;4.40;99.90
13344;DHT22;6741;48.964;9.406;2023-04-06T07:41:39;4.60;99.90
13344;DHT22;6741;48.964;9.406;2023-04-06T07:44:06;4.80;99.90
13344;DHT22;6741;48.964;9.406;2023-04-06T07:46:33;5.00;99.90
13344;DHT22;6741;48.964;9.406;2023-04-06T07:49:03;5.10;99.90
13344;DHT22;6741;48.964;9.406;2023-04-06T07:51:30;5.20;99.90
13344;DHT22;6741;48.964;9.406;2023-04-06T07:53:57;5.30;99.90
13344;DHT22;6741;48.964;9.406;2023-04-06T07:56:24;5.50;99.90
13344;DHT22;6741;48.964;9.406;2023-04-06T07:58:51;5.60;99.90
13344;DHT22;6741;48.964;9.406;2023-04-06T08:01:21;5.70;99.90
13344;DHT22;6741;48.964;9.406;2023-04-06T08:03:47;5.90;99.90
13344;DHT22;6741;48.964;9.406;2023-04-06T08:06:17;6.00;99.90
13344;DHT22;6741;48.964;9.406;2023-04-06T08:08:44;6.20;99.90
13344;DHT22;6741;48.964;9.406;2023-04-06T08:11:12;6.20;99.90
13344;DHT22;6741;48.964;9.406;2023-04-06T08:13:39;6.40;99.90
13344;DHT22;6741;48.964;9.406;2023-04-06T08:16:06;6.50;99.90
13344;DHT22;6741;48.964;9.406;2023-04-06T08:18:33;6.60;99.90
13344;DHT22;6741;48.964;9.406;2023-04-06T08:21:00;6.70;99.90
13344;DHT22;6741;48.964;9.406;2023-04-06T08:23:29;6.60;99.90
13344;DHT22;6741;48.964;9.406;2023-04-06T08:25:56;6.80;99.90
13344;DHT22;6741;48.964;9.406;2023-04-06T08:28:23;7.00;99.90
13344;DHT22;6741;48.964;9.406;2023-04-06T08:30:50;7.10;99.90
13344;DHT22;6741;48.964;9.406;2023-04-06T08:33:17;7.20;99.90
13344;DHT22;6741;48.964;9.406;2023-04-06T08:35:44;7.00;99.90
13344;DHT22;6741;48.964;9.406;2023-04-06T08:38:11;7.00;99.90
13344;DHT22;6741;48.964;9.406;2023-04-06T08:40:39;7.30;99.90
13344;DHT22;6741;48.964;9.406;2023-04-06T08:43:11;7.30;99.90
13344;DHT22;6741;48.964;9.406;2023-04-06T08:45:40;7.40;99.90
13344;DHT22;6741;48.964;9.406;2023-04-06T08:48:08;7.50;99.90
13344;DHT22;6741;48.964;9.406;2023-04-06T08:50:35;7.70;99.90
13344;DHT22;6741;48.964;9.406;2023-04-06T08:53:02;7.80;99.90
13344;DHT22;6741;48.964;9.406;2023-04-06T08:55:29;7.90;99.90
13344;DHT22;6741;48.964;9.406;2023-04-06T08:57:59;8.10;99.90
13344;DHT22;6741;48.964;9.406;2023-04-06T09:00:27;8.30;99.90
13344;DHT22;6741;48.964;9.406;2023-04-06T09:02:56;8.40;99.90
13344;DHT22;6741;48.964;9.406;2023-04-06T09:05:25;8.50;99.90
13344;DHT22;6741;48.964;9.406;2023-04-06T09:07:52;8.60;99.90
13344;DHT22;6741;48.964;9.406;2023-04-06T09:10:19;8.70;99.90
13344;DHT22;6741;48.964;9.406;2023-04-06T09:12:49;8.80;99.90
13344;DHT22;6741;48.964;9.406;2023-04-06T09:15:21;8.80;99.90
13344;DHT22;6741;48.964;9.406;2023-04-06T09:17:48;9.00;99.90
13344;DHT22;6741;48.964;9.406;2023-04-06T09:20:22;9.10;99.90
13344;DHT22;6741;48.964;9.406;2023-04-06T09:22:51;9.20;99.90
13344;DHT22;6741;48.964;9.406;2023-04-06T09:25:19;9.30;99.90
13344;DHT22;6741;48.964;9.406;2023-04-06T09:27:57;9.60;99.90
13344;DHT22;6741;48.964;9.406;2023-04-06T09:30:26;10.00;99.90
13344;DHT22;6741;48.964;9.406;2023-04-06T09:32:54;10.30;99.90
13344;DHT22;6741;48.964;9.406;2023-04-06T09:35:22;10.50;99.90
13344;DHT22;6741;48.964;9.406;2023-04-06T09:37:52;10.50;99.90
13344;DHT22;6741;48.964;9.406;2023-04-06T09:40:19;10.60;99.90
13344;DHT22;6741;48.964;9.406;2023-04-06T09:42:48;10.90;99.90
13344;DHT22;6741;48.964;9.406;2023-04-06T09:45:16;11.20;99.90
13344;DHT22;6741;48.964;9.406;2023-04-06T09:47:45;11.30;99.90
13344;DHT22;6741;48.964;9.406;2023-04-06T09:50:13;11.40;99.90
13344;DHT22;6741;48.964;9.406;2023-04-06T09:52:46;11.50;99.90
13344;DHT22;6741;48.964;9.406;2023-04-06T09:55:20;11.60;99.40
13344;DHT22;6741;48.964;9.406;2023-04-06T09:57:55;11.70;99.90
13344;DHT22;6741;48.964;9.406;2023-04-06T10:00:25;11.80;99.90
13344;DHT22;6741;48.964;9.406;2023-04-06T10:02:58;11.90;98.40
13344;DHT22;6741;48.964;9.406;2023-04-06T10:05:33;11.90;96.90
13344;DHT22;6741;48.964;9.406;2023-04-06T10:08:05;12.20;95.30
13344;DHT22;6741;48.964;9.406;2023-04-06T10:10:34;12.40;94.50
13344;DHT22;6741;48.964;9.406;2023-04-06T10:13:03;12.50;91.20
13344;DHT22;6741;48.964;9.406;2023-04-06T10:15:31;12.60;92.00
13344;DHT22;6741;48.964;9.406;2023-04-06T10:18:00;12.60;91.90
13344;DHT22;6741;48.964;9.406;2023-04-06T10:20:38;12.80;90.80
13344;DHT22;6741;48.964;9.406;2023-04-06T10:23:09;12.30;90.10
13344;DHT22;6741;48.964;9.406;2023-04-06T10:25:39;12.50;91.40
13344;DHT22;6741;48.964;9.406;2023-04-06T10:28:08;12.70;87.50
13344;DHT22;6741;48.964;9.406;2023-04-06T10:30:42;12.80;89.60
13344;DHT22;6741;48.964;9.406;2023-04-06T10:33:20;13.30;91.10
13344;DHT22;6741;48.964;9.406;2023-04-06T10:35:47;13.70;90.50
13344;DHT22;6741;48.964;9.406;2023-04-06T10:38:15;14.10;92.50
13344;DHT22;6741;48.964;9.406;2023-04-06T10:40:47;13.80;84.10
13344;DHT22;6741;48.964;9.406;2023-04-06T10:43:19;13.40;85.60
13344;DHT22;6741;48.964;9.406;2023-04-06T10:45:54;13.70;88.20
13344;DHT22;6741;48.964;9.406;2023-04-06T10:48:23;14.50;86.40
13344;DHT22;6741;48.964;9.406;2023-04-06T10:50:52;14.80;83.70
13344;DHT22;6741;48.964;9.406;2023-04-06T10:53:23;14.90;89.30
13344;DHT22;6741;48.964;9.406;2023-04-06T10:55:52;15.40;84.50
13344;DHT22;6741;48.964;9.406;2023-04-06T10:58:19;15.10;81.80
13344;DHT22;6741;48.964;9.406;2023-04-06T11:00:47;15.70;88.80
13344;DHT22;6741;48.964;9.406;2023-04-06T11:03:14;16.10;84.80
13344;DHT22;6741;48.964;9.406;2023-04-06T11:05:45;16.80;86.10
13344;DHT22;6741;48.964;9.406;2023-04-06T11:08:22;16.30;76.80
13344;DHT22;6741;48.964;9.406;2023-04-06T11:10:49;16.20;73.30
13344;DHT22;6741;48.964;9.406;2023-04-06T11:13:16;16.50;82.20
13344;DHT22;6741;48.964;9.406;2023-04-06T11:15:43;17.00;84.00
13344;DHT22;6741;48.964;9.406;2023-04-06T11:18:10;17.40;82.50
13344;DHT22;6741;48.964;9.406;2023-04-06T11:20:37;17.30;78.00
13344;DHT22;6741;48.964;9.406;2023-04-06T11:23:06;16.60;71.90
13344;DHT22;6741;48.964;9.406;2023-04-06T11:25:33;16.80;76.40
13344;DHT22;6741;48.964;9.406;2023-04-06T11:28:00;17.00;71.50
13344;DHT22;6741;48.964;9.406;2023-04-06T11:30:28;17.40;71.80
13344;DHT22;6741;48.964;9.406;2023-04-06T11:33:00;17.20;70.70
13344;DHT22;6741;48.964;9.406;2023-04-06T11:35:31;17.20;69.80
13344;DHT22;6741;48.964;9.406;2023-04-06T11:38:03;17.40;65.60
13344;DHT22;6741;48.964;9.406;2023-04-06T11:40:31;17.50;69.40
13344;DHT22;6741;48.964;9.406;2023-04-06T11:42:58;18.20;68.70
13344;DHT22;6741;48.964;9.406;2023-04-06T11:45:25;17.60;64.00
13344;DHT22;6741;48.964;9.406;2023-04-06T11:47:56;16.20;63.10
13344;DHT22;6741;48.964;9.406;2023-04-06T11:50:23;15.80;64.20
13344;DHT22;6741;48.964;9.406;2023-04-06T11:52:58;17.50;67.50
13344;DHT22;6741;48.964;9.406;2023-04-06T11:55:26;18.80;69.00
13344;DHT22;6741;48.964;9.406;2023-04-06T11:57:54;19.20;62.00
13344;DHT22;6741;48.964;9.406;2023-04-06T12:00:21;19.30;65.50
13344;DHT22;6741;48.964;9.406;2023-04-06T12:02:49;20.10;64.10
13344;DHT22;6741;48.964;9.406;2023-04-06T12:05:16;19.40;55.80
13344;DHT22;6741;48.964;9.406;2023-04-06T12:07:43;19.20;56.80
13344;DHT22;6741;48.964;9.406;2023-04-06T12:10:11;19.30;54.70
13344;DHT22;6741;48.964;9.406;2023-04-06T12:12:38;20.80;58.50
13344;DHT22;6741;48.964;9.406;2023-04-06T12:15:08;20.60;51.00
13344;DHT22;6741;48.964;9.406;2023-04-06T12:17:35;18.20;49.80
13344;DHT22;6741;48.964;9.406;2023-04-06T12:20:10;18.10;54.00
13344;DHT22;6741;48.964;9.406;2023-04-06T12:22:39;18.30;54.70
13344;DHT22;6741;48.964;9.406;2023-04-06T12:25:07;17.70;55.80
13344;DHT22;6741;48.964;9.406;2023-04-06T12:27:35;18.30;56.90
13344;DHT22;6741;48.964;9.406;2023-04-06T12:30:03;19.40;55.40
13344;DHT22;6741;48.964;9.406;2023-04-06T12:32:32;19.70;53.80
13344;DHT22;6741;48.964;9.406;2023-04-06T12:34:59;19.00;51.10
13344;DHT22;6741;48.964;9.406;2023-04-06T12:37:27;19.50;57.10
13344;DHT22;6741;48.964;9.406;2023-04-06T12:39:53;19.50;53.50
13344;DHT22;6741;48.964;9.406;2023-04-06T12:42:20;19.90;53.50
13344;DHT22;6741;48.964;9.406;2023-04-06T12:44:48;19.90;49.20
13344;DHT22;6741;48.964;9.406;2023-04-06T12:47:15;19.90;47.30
13344;DHT22;6741;48.964;9.406;2023-04-06T12:49:43;20.00;52.70
13344;DHT22;6741;48.964;9.406;2023-04-06T12:52:10;20.10;51.90
13344;DHT22;6741;48.964;9.406;2023-04-06T12:54:38;20.90;52.00
13344;DHT22;6741;48.964;9.406;2023-04-06T12:57:05;21.30;49.70
13344;DHT22;6741;48.964;9.406;2023-04-06T12:59:32;20.80;45.40
13344;DHT22;6741;48.964;9.406;2023-04-06T13:02:01;22.20;52.70
13344;DHT22;6741;48.964;9.406;2023-04-06T13:04:27;22.80;48.40
13344;DHT22;6741;48.964;9.406;2023-04-06T13:06:56;23.00;48.00
13344;DHT22;6741;48.964;9.406;2023-04-06T13:09:23;23.50;49.30
13344;DHT22;6741;48.964;9.406;2023-04-06T13:11:49;24.00;45.00
13344;DHT22;6741;48.964;9.406;2023-04-06T13:14:17;24.50;44.10
13344;DHT22;6741;48.964;9.406;2023-04-06T13:16:44;25.20;52.20
13344;DHT22;6741;48.964;9.406;2023-04-06T13:19:11;25.70;42.20
13344;DHT22;6741;48.964;9.406;2023-04-06T13:21:39;25.90;40.80
13344;DHT22;6741;48.964;9.406;2023-04-06T13:24:07;24.70;39.90
13344;DHT22;6741;48.964;9.406;2023-04-06T13:26:35;23.90;38.40
13344;DHT22;6741;48.964;9.406;2023-04-06T13:29:02;23.40;41.10
13344;DHT22;6741;48.964;9.406;2023-04-06T13:31:29;22.80;33.80
13344;DHT22;6741;48.964;9.406;2023-04-06T13:33:56;21.30;32.90
13344;DHT22;6741;48.964;9.406;2023-04-06T13:36:23;21.30;38.40
13344;DHT22;6741;48.964;9.406;2023-04-06T13:38:50;21.90;38.00
13344;DHT22;6741;48.964;9.406;2023-04-06T13:41:22;21.70;35.90
13344;DHT22;6741;48.964;9.406;2023-04-06T13:43:49;21.70;37.60
13344;DHT22;6741;48.964;9.406;2023-04-06T13:46:16;20.40;34.10
13344;DHT22;6741;48.964;9.406;2023-04-06T13:48:43;20.10;33.70
13344;DHT22;6741;48.964;9.406;2023-04-06T13:51:11;19.30;34.30
13344;DHT22;6741;48.964;9.406;2023-04-06T13:53:38;19.10;38.90
13344;DHT22;6741;48.964;9.406;2023-04-06T13:56:06;19.10;37.50
13344;DHT22;6741;48.964;9.406;2023-04-06T13:58:34;19.00;33.20
13344;DHT22;6741;48.964;9.406;2023-04-06T14:01:03;18.30;35.20
13344;DHT22;6741;48.964;9.406;2023-04-06T14:03:30;17.80;34.50
13344;DHT22;6741;48.964;9.406;2023-04-06T14:05:57;16.90;32.20
13344;DHT22;6741;48.964;9.406;2023-04-06T14:08:24;16.40;32.10
13344;DHT22;6741;48.964;9.406;2023-04-06T14:10:51;16.30;32.90
13344;DHT22;6741;48.964;9.406;2023-04-06T14:13:19;16.50;31.40
13344;DHT22;6741;48.964;9.406;2023-04-06T14:15:53;17.30;36.90
13344;DHT22;6741;48.964;9.406;2023-04-06T14:18:20;17.70;37.10
13344;DHT22;6741;48.964;9.406;2023-04-06T14:20:53;18.40;36.20
13344;DHT22;6741;48.964;9.406;2023-04-06T14:23:21;19.30;37.90
13344;DHT22;6741;48.964;9.406;2023-04-06T14:25:48;19.10;39.10
13344;DHT22;6741;48.964;9.406;2023-04-06T14:28:15;18.40;34.10
13344;DHT22;6741;48.964;9.406;2023-04-06T14:30:42;17.70;37.50
13344;DHT22;6741;48.964;9.406;2023-04-06T14:33:10;17.50;40.60
13344;DHT22;6741;48.964;9.406;2023-04-06T14:35:38;17.40;40.00
13344;DHT22;6741;48.964;9.406;2023-04-06T14:38:05;17.20;41.10
13344;DHT22;6741;48.964;9.406;2023-04-06T14:40:34;16.80;38.50
13344;DHT22;6741;48.964;9.406;2023-04-06T14:43:02;16.80;43.80
13344;DHT22;6741;48.964;9.406;2023-04-06T14:45:32;17.10;40.20
13344;DHT22;6741;48.964;9.406;2023-04-06T14:47:59;17.40;40.80
13344;DHT22;6741;48.964;9.406;2023-04-06T14:50:27;18.40;40.90
13344;DHT22;6741;48.964;9.406;2023-04-06T14:52:54;19.60;42.20
13344;DHT22;6741;48.964;9.406;2023-04-06T14:55:21;20.50;42.40
13344;DHT22;6741;48.964;9.406;2023-04-06T14:57:48;20.60;40.00
13344;DHT22;6741;48.964;9.406;2023-04-06T15:00:16;20.40;39.60
13344;DHT22;6741;48.964;9.406;2023-04-06T15:02:43;20.20;35.80
13344;DHT22;6741;48.964;9.406;2023-04-06T15:05:10;19.70;39.00
13344;DHT22;6741;48.964;9.406;2023-04-06T15:07:38;19.20;39.90
13344;DHT22;6741;48.964;9.406;2023-04-06T15:10:07;19.00;37.50
13344;DHT22;6741;48.964;9.406;2023-04-06T15:12:35;18.00;39.80
13344;DHT22;6741;48.964;9.406;2023-04-06T15:15:03;17.40;37.90
13344;DHT22;6741;48.964;9.406;2023-04-06T15:17:30;17.10;40.90
13344;DHT22;6741;48.964;9.406;2023-04-06T15:19:57;17.10;39.80
13344;DHT22;6741;48.964;9.406;2023-04-06T15:22:24;16.80;40.70
13344;DHT22;6741;48.964;9.406;2023-04-06T15:24:52;16.80;42.10
13344;DHT22;6741;48.964;9.406;2023-04-06T15:27:19;16.70;40.60
13344;DHT22;6741;48.964;9.406;2023-04-06T15:29:46;16.50;42.40
13344;DHT22;6741;48.964;9.406;2023-04-06T15:32:13;16.40;41.10
13344;DHT22;6741;48.964;9.406;2023-04-06T15:34:40;16.50;45.30
13344;DHT22;6741;48.964;9.406;2023-04-06T15:37:07;16.50;42.20
13344;DHT22;6741;48.964;9.406;2023-04-06T15:39:34;16.60;42.20
13344;DHT22;6741;48.964;9.406;2023-04-06T15:42:03;16.60;40.40
13344;DHT22;6741;48.964;9.406;2023-04-06T15:44:30;16.50;42.30
13344;DHT22;6741;48.964;9.406;2023-04-06T15:46:57;16.20;41.80
13344;DHT22;6741;48.964;9.406;2023-04-06T15:49:24;16.10;43.40
13344;DHT22;6741;48.964;9.406;2023-04-06T15:51:51;15.50;44.40
13344;DHT22;6741;48.964;9.406;2023-04-06T15:54:18;15.20;45.40
13344;DHT22;6741;48.964;9.406;2023-04-06T15:56:46;15.00;44.00
13344;DHT22;6741;48.964;9.406;2023-04-06T15:59:15;14.80;46.10